Terminal Aerodrome Forecast
Issued by NWS Fort Wayne, IN

Home | Current Version | Previous Version | Graphics & Text | Print | Product List | Glossary On
Versions: 1 2 3 4 5 6 7 8 9 10 11 12 13 14 15 16 17
000
FTUS43 KIWX 151100
TAFFWA
TAF
KFWA 151125Z 1512/1612 06005KT P6SM BKN250
     FM151500 08017G24KT P6SM BKN250
     FM160200 08015KT P6SM SCT060 OVC120
     FM160800 11012KT P6SM VCSH OVC040=

USA.gov is the U.S. government's official web portal to all federal, state and local government web resources and services.